Time;durP1;ratioP1;P1;durP2;ratioP2;P2;SDS_P1;SDS_P2;PMS_P1;PMS_P2;Temp;Humidity;BMP_temperature;BMP_pressure;BME280_temperature;BME280_humidity;BME280_pressure;Samples;Min_cycle;Max_cycle;Signal;HPM_P1;HPM_P2
2021/10/20 00:00:18;;;;;;;;;9.00;9.00;;;;;19.03;60.73;101135.09;5057929;28;47778;-76
2021/10/20 00:02:45;;;;;;;;;9.00;9.00;;;;;19.02;60.99;101127.13;5058398;28;45130;-76
2021/10/20 00:05:10;;;;;;;;;7.33;7.33;;;;;19.03;60.72;101124.41;5058517;28;45434;-75
2021/10/20 00:07:36;;;;;;;;;9.67;8.67;;;;;19.03;60.50;101113.69;5058461;28;45454;-76
2021/10/20 00:10:02;;;;;;;;;8.33;8.33;;;;;19.04;60.89;101117.25;5057966;28;46507;-76
2021/10/20 00:12:27;;;;;;;;;10.33;7.67;;;;;19.03;60.70;101112.81;5045276;28;45511;-76
2021/10/20 00:14:52;;;;;;;;;10.00;9.00;;;;;19.02;60.81;101116.41;5052402;28;45543;-77
2021/10/20 00:17:19;;;;;;;;;8.67;8.67;;;;;19.01;60.84;101112.81;5050182;28;45245;-76
2021/10/20 00:19:47;;;;;;;;;11.67;9.00;;;;;19.00;61.04;101115.53;5057593;28;46887;-76
2021/10/20 00:22:12;;;;;;;;;8.67;8.67;;;;;19.01;60.97;101112.81;5057807;28;45244;-76
2021/10/20 00:24:38;;;;;;;;;7.33;7.33;;;;;19.00;61.25;101111.06;5039848;28;45864;-76
2021/10/20 00:27:03;;;;;;;;;11.33;9.67;;;;;19.01;61.34;101099.44;5056780;28;54820;-76
2021/10/20 00:29:28;;;;;;;;;10.33;8.33;;;;;19.00;61.33;101095.00;5056921;28;60838;-76
2021/10/20 00:31:54;;;;;;;;;10.00;8.00;;;;;19.02;61.34;101097.69;5056863;28;54992;-76
2021/10/20 00:34:19;;;;;;;;;9.33;6.33;;;;;19.00;61.85;101084.31;5049599;28;48600;-76
2021/10/20 00:36:45;;;;;;;;;10.00;9.00;;;;;19.00;61.18;101081.63;5057652;28;45342;-76
2021/10/20 00:39:10;;;;;;;;;9.33;7.33;;;;;18.99;61.56;101081.66;5057326;28;46576;-76
2021/10/20 00:41:36;;;;;;;;;11.00;9.33;;;;;18.97;61.26;101072.81;5057211;28;45304;-76
2021/10/20 00:44:01;;;;;;;;;8.00;8.00;;;;;18.94;61.83;101071.06;5057125;28;45517;-76
2021/10/20 00:46:30;;;;;;;;;8.00;8.00;;;;;18.97;61.95;101062.09;5057409;28;45425;-76
2021/10/20 00:48:55;;;;;;;;;11.00;9.67;;;;;18.94;62.10;101059.47;5048640;28;47458;-76
2021/10/20 00:51:25;;;;;;;;;10.33;8.67;;;;;18.98;61.53;101061.19;5057252;28;45459;-76
2021/10/20 00:53:51;;;;;;;;;7.67;7.00;;;;;18.94;62.01;101063.03;5056845;28;45296;-75
2021/10/20 00:56:17;;;;;;;;;12.33;10.67;;;;;18.98;61.75;101059.38;5057242;28;45522;-75
2021/10/20 00:58:42;;;;;;;;;8.33;8.33;;;;;18.97;61.83;101054.06;5056713;28;51541;-76
2021/10/20 01:01:07;;;;;;;;;9.00;9.00;;;;;18.88;61.82;101038.19;5037039;28;46744;-76
2021/10/20 01:03:33;;;;;;;;;11.00;9.67;;;;;18.95;61.82;101053.19;5038433;28;45832;-76
2021/10/20 01:05:58;;;;;;;;;11.33;9.67;;;;;18.97;62.23;101052.28;5056705;28;50556;-76
2021/10/20 01:08:24;;;;;;;;;9.00;9.00;;;;;18.98;62.06;101053.16;5056177;28;56057;-76
2021/10/20 01:10:49;;;;;;;;;10.67;10.67;;;;;18.97;62.43;101048.72;5056975;28;45354;-76
2021/10/20 01:13:14;;;;;;;;;10.33;7.67;;;;;18.98;62.35;101050.47;5038306;28;55111;-76
2021/10/20 01:15:40;;;;;;;;;9.00;8.00;;;;;18.95;62.37;101040.69;5056909;28;45343;-76
2021/10/20 01:18:05;;;;;;;;;9.33;8.00;;;;;18.92;62.71;101026.53;5038284;28;54101;-76
2021/10/20 01:20:32;;;;;;;;;8.33;7.00;;;;;18.88;62.59;101015.00;5038601;28;54675;-76
2021/10/20 01:22:58;;;;;;;;;8.67;7.33;;;;;18.89;62.38;101035.47;5056703;28;45228;-75
2021/10/20 01:25:23;;;;;;;;;10.33;9.67;;;;;18.89;62.52;101035.47;5039096;28;50473;-77
2021/10/20 01:27:49;;;;;;;;;9.00;9.00;;;;;18.82;62.53;101016.00;5056313;28;46514;-76
2021/10/20 01:30:14;;;;;;;;;8.33;8.33;;;;;18.86;62.73;101018.63;5056976;28;45300;-76
2021/10/20 01:32:39;;;;;;;;;9.67;9.67;;;;;18.83;63.11;101017.75;5056453;28;45268;-76
2021/10/20 01:35:05;;;;;;;;;10.67;10.33;;;;;18.78;62.71;101008.94;5046538;28;45282;-76
2021/10/20 01:37:31;;;;;;;;;9.67;8.33;;;;;18.80;62.91;101020.50;5056373;28;47445;-76
2021/10/20 01:39:56;;;;;;;;;10.33;9.67;;;;;18.78;63.25;101008.94;5051905;28;59656;-75
2021/10/20 01:42:25;;;;;;;;;10.67;9.00;;;;;18.77;62.98;101022.34;5056694;28;45321;-77
2021/10/20 01:44:50;;;;;;;;;11.33;10.00;;;;;18.76;63.29;101002.75;5056782;28;45344;-76
2021/10/20 01:47:16;;;;;;;;;8.00;8.00;;;;;18.72;63.59;100987.66;5056257;28;46071;-76
2021/10/20 01:49:41;;;;;;;;;8.33;8.33;;;;;18.73;63.61;100984.06;5055073;28;47542;-76
2021/10/20 01:52:07;;;;;;;;;8.33;8.33;;;;;18.74;63.41;100976.91;5055864;28;56014;-76
2021/10/20 01:54:32;;;;;;;;;9.33;9.33;;;;;18.74;63.64;100980.47;5057039;28;45451;-76
2021/10/20 01:56:57;;;;;;;;;13.67;10.00;;;;;18.74;63.57;100972.44;5055923;28;61261;-76
2021/10/20 01:59:23;;;;;;;;;12.00;9.00;;;;;18.76;63.20;100976.00;5056779;28;45166;-76
2021/10/20 02:01:48;;;;;;;;;10.00;9.00;;;;;18.77;63.24;100960.81;5055757;28;55579;-76
2021/10/20 02:04:14;;;;;;;;;11.00;10.00;;;;;18.76;63.38;100959.94;5055827;28;47732;-76
2021/10/20 02:06:41;;;;;;;;;11.33;11.33;;;;;18.70;63.70;100954.72;5056172;28;47597;-76
2021/10/20 02:09:07;;;;;;;;;9.33;9.33;;;;;18.70;63.40;100948.50;5056224;28;45366;-76
2021/10/20 02:11:33;;;;;;;;;10.67;10.00;;;;;18.73;63.63;100945.75;5056350;28;45269;-76
2021/10/20 02:13:58;;;;;;;;;9.00;7.33;;;;;18.72;63.54;100930.59;5057978;28;45308;-76
2021/10/20 02:16:24;;;;;;;;;12.33;10.67;;;;;18.72;63.76;100931.50;5059030;28;47794;-76
2021/10/20 02:18:49;;;;;;;;;8.00;8.00;;;;;18.70;63.71;100925.31;5059120;28;56924;-76
2021/10/20 02:21:15;;;;;;;;;12.33;9.67;;;;;18.66;63.90;100907.50;5059761;28;45479;-76
2021/10/20 02:23:41;;;;;;;;;13.00;11.00;;;;;18.67;63.56;100906.59;5042052;28;45469;-76
2021/10/20 02:26:06;;;;;;;;;13.00;10.33;;;;;18.70;64.16;100901.22;5059117;28;55024;-76
2021/10/20 02:28:32;;;;;;;;;16.33;12.67;;;;;18.70;63.98;100906.56;5059180;28;50420;-76
2021/10/20 02:30:57;;;;;;;;;13.00;12.00;;;;;18.69;64.30;100904.78;5058913;28;56120;-76
2021/10/20 02:33:22;;;;;;;;;9.00;9.00;;;;;18.70;63.80;100903.03;5059543;28;46206;-76
2021/10/20 02:35:48;;;;;;;;;11.33;10.33;;;;;18.70;64.24;100906.56;5058453;28;49431;-76
2021/10/20 02:38:13;;;;;;;;;15.00;12.00;;;;;18.71;64.21;100900.31;5059254;28;45246;-77
2021/10/20 02:40:39;;;;;;;;;11.67;11.33;;;;;18.71;64.21;100902.97;5058764;28;45617;-77
2021/10/20 02:43:04;;;;;;;;;14.00;11.67;;;;;18.70;64.21;100895.00;5059204;28;45214;-76
2021/10/20 02:45:29;;;;;;;;;12.67;12.67;;;;;18.71;63.91;100897.63;5059134;28;47532;-77
2021/10/20 02:47:55;;;;;;;;;13.00;11.67;;;;;18.69;64.08;100880.72;5054760;28;45268;-76
2021/10/20 02:50:22;;;;;;;;;10.67;10.67;;;;;18.69;64.45;100888.75;5054937;28;45285;-76
2021/10/20 02:52:47;;;;;;;;;15.33;12.67;;;;;18.69;64.40;100877.16;5059599;28;45530;-76
2021/10/20 02:55:13;;;;;;;;;10.00;10.00;;;;;18.66;64.29;100870.06;5058731;28;61870;-76
2021/10/20 02:57:38;;;;;;;;;10.67;10.67;;;;;18.67;64.54;100890.53;5058495;28;53323;-76
2021/10/20 03:00:05;;;;;;;;;14.33;12.33;;;;;18.67;64.37;100881.66;5058635;28;54739;-76
2021/10/20 03:02:30;;;;;;;;;16.00;12.33;;;;;18.65;64.46;100887.03;5058863;28;45427;-76
2021/10/20 03:04:55;;;;;;;;;13.00;12.00;;;;;18.64;64.80;100889.72;5058962;28;47561;-76
2021/10/20 03:07:21;;;;;;;;;14.00;12.67;;;;;18.61;64.63;100882.66;5058707;28;50332;-75
2021/10/20 03:09:46;;;;;;;;;11.33;11.33;;;;;18.58;64.62;100878.25;5058597;28;52758;-76
2021/10/20 03:12:11;;;;;;;;;11.00;11.00;;;;;18.56;64.83;100890.78;5058178;28;49702;-76
2021/10/20 03:14:37;;;;;;;;;14.67;12.67;;;;;18.55;64.84;100896.16;5058239;28;60708;-76
2021/10/20 03:17:02;;;;;;;;;13.00;12.00;;;;;18.52;64.96;100894.41;5058191;28;54034;-76
2021/10/20 03:19:28;;;;;;;;;11.00;11.00;;;;;18.54;64.54;100897.09;5047181;28;45323;-76
2021/10/20 03:21:53;;;;;;;;;16.00;13.00;;;;;18.48;64.59;100897.19;5056731;28;53789;-76
2021/10/20 03:24:18;;;;;;;;;14.00;14.00;;;;;18.54;65.18;100918.47;5058547;28;46378;-76
2021/10/20 03:26:44;;;;;;;;;11.00;9.67;;;;;18.51;64.93;100897.13;5057704;28;59311;-76
2021/10/20 03:29:09;;;;;;;;;13.00;12.00;;;;;18.50;65.03;100871.31;5057864;28;54646;-76
2021/10/20 03:31:35;;;;;;;;;13.67;13.67;;;;;18.51;64.63;100857.91;5058263;28;51341;-76
2021/10/20 03:34:00;;;;;;;;;13.67;12.33;;;;;18.52;65.08;100861.44;5050017;28;55642;-76
2021/10/20 03:36:25;;;;;;;;;11.67;11.00;;;;;18.52;64.97;100858.78;5053091;28;56695;-76
2021/10/20 03:38:51;;;;;;;;;15.00;12.67;;;;;18.52;65.05;100862.31;5056312;28;45751;-76
2021/10/20 03:41:16;;;;;;;;;13.67;12.00;;;;;18.52;64.95;100865.00;5051686;28;45519;-76
2021/10/20 03:43:42;;;;;;;;;13.00;13.00;;;;;18.53;65.33;100873.91;5057477;28;62652;-76
2021/10/20 03:46:07;;;;;;;;;12.67;12.00;;;;;18.49;64.93;100862.41;5057595;28;61658;-76
2021/10/20 03:48:32;;;;;;;;;13.00;13.00;;;;;18.54;65.19;100873.00;5050668;28;56538;-76
2021/10/20 03:50:58;;;;;;;;;12.67;12.67;;;;;18.52;65.09;100865.00;5056271;28;45570;-76
2021/10/20 03:53:23;;;;;;;;;11.00;11.00;;;;;18.47;64.79;100864.22;5058098;28;47525;-76
2021/10/20 03:55:49;;;;;;;;;12.00;12.00;;;;;18.52;64.97;100861.44;5057847;28;45422;-76
2021/10/20 03:58:14;;;;;;;;;10.67;10.67;;;;;18.54;65.33;100857.84;5039627;28;45665;-76
2021/10/20 04:00:40;;;;;;;;;11.33;11.33;;;;;18.56;65.34;100855.13;5058259;28;45272;-75
2021/10/20 04:03:05;;;;;;;;;12.33;11.00;;;;;18.53;65.26;100849.84;5057820;28;46424;-76
2021/10/20 04:05:30;;;;;;;;;17.00;12.00;;;;;18.57;65.28;100851.53;5057269;28;58364;-76
2021/10/20 04:07:56;;;;;;;;;13.67;13.67;;;;;18.59;64.75;100815.84;5057109;28;55224;-77
2021/10/20 04:10:25;;;;;;;;;15.00;12.33;;;;;18.59;64.73;100818.50;5057763;28;53822;-76
2021/10/20 04:12:51;;;;;;;;;14.00;12.33;;;;;18.59;65.22;100812.28;5057568;28;46454;-76
2021/10/20 04:15:17;;;;;;;;;16.33;14.00;;;;;18.61;65.32;100806.91;5057428;28;45374;-76
2021/10/20 04:17:43;;;;;;;;;15.00;14.00;;;;;18.59;64.94;100826.53;5057789;28;45441;-75
2021/10/20 04:20:13;;;;;;;;;15.00;14.00;;;;;18.59;65.00;100820.31;5058003;28;45340;-76
2021/10/20 04:22:38;;;;;;;;;13.00;13.00;;;;;18.57;65.03;100814.09;5057876;28;46377;-76
2021/10/20 04:25:04;;;;;;;;;13.00;11.00;;;;;18.58;64.94;100823.88;5057921;28;45469;-76
2021/10/20 04:27:29;;;;;;;;;15.00;13.00;;;;;18.58;65.66;100821.19;5057290;28;45456;-75
2021/10/20 04:29:57;;;;;;;;;10.00;10.00;;;;;18.53;65.11;100807.94;5057192;28;45524;-76
2021/10/20 04:32:22;;;;;;;;;10.00;10.00;;;;;18.58;65.13;100813.19;5057552;28;47360;-76
2021/10/20 04:34:48;;;;;;;;;10.00;10.00;;;;;18.57;65.09;100804.28;5048548;28;45333;-76
2021/10/20 04:37:13;;;;;;;;;12.00;12.00;;;;;18.58;64.94;100818.53;5055943;28;45689;-77
2021/10/20 04:39:38;;;;;;;;;12.00;12.00;;;;;18.58;64.91;100830.09;5056969;28;50246;-76
2021/10/20 04:42:04;;;;;;;;;17.67;13.00;;;;;18.56;64.98;100823.03;5038713;28;57544;-76
2021/10/20 04:44:29;;;;;;;;;11.00;11.00;;;;;18.57;64.83;100806.06;5056342;28;56607;-76
2021/10/20 04:46:55;;;;;;;;;11.67;10.67;;;;;18.56;64.82;100821.25;5056903;28;56796;-76
2021/10/20 04:49:20;;;;;;;;;12.67;11.00;;;;;18.53;65.03;100815.94;5046765;28;45523;-76
2021/10/20 04:51:45;;;;;;;;;14.00;12.00;;;;;18.53;65.41;100823.97;5056436;28;59253;-76
2021/10/20 04:54:11;;;;;;;;;14.00;12.33;;;;;18.55;65.00;100826.63;5056771;28;50556;-76
2021/10/20 04:56:36;;;;;;;;;15.00;12.00;;;;;18.54;65.06;100839.13;5056708;28;53865;-76
2021/10/20 04:59:01;;;;;;;;;12.00;12.00;;;;;18.54;64.99;100825.75;5056573;28;52087;-77
2021/10/20 05:01:27;;;;;;;;;13.33;12.00;;;;;18.53;65.24;100836.47;5056473;28;60161;-76
2021/10/20 05:03:52;;;;;;;;;13.67;13.00;;;;;18.52;65.24;100827.56;5056655;28;45362;-76
2021/10/20 05:06:18;;;;;;;;;13.67;13.67;;;;;18.52;65.26;100827.56;5056685;28;57528;-76
2021/10/20 05:08:43;;;;;;;;;13.00;12.00;;;;;18.52;64.96;100837.38;5056415;28;51330;-77
2021/10/20 05:11:08;;;;;;;;;11.67;10.00;;;;;18.51;65.32;100819.59;5056587;28;57323;-77
2021/10/20 05:13:34;;;;;;;;;12.33;11.67;;;;;18.49;65.41;100824.97;5056515;28;50465;-76
2021/10/20 05:15:59;;;;;;;;;14.00;13.00;;;;;18.47;65.27;100815.22;5056838;28;45358;-76
2021/10/20 05:18:24;;;;;;;;;12.33;11.00;;;;;18.49;65.33;100805.38;5043272;28;45469;-77
2021/10/20 05:20:50;;;;;;;;;13.33;12.00;;;;;18.49;65.39;100810.72;5052258;28;46431;-75
2021/10/20 05:23:16;;;;;;;;;12.00;12.00;;;;;18.49;65.59;100792.00;5055569;28;56440;-75
2021/10/20 05:25:41;;;;;;;;;15.33;14.33;;;;;18.47;65.13;100778.66;5056759;28;45535;-76
2021/10/20 05:28:07;;;;;;;;;12.00;12.00;;;;;18.45;65.40;100784.97;5055336;28;45527;-75
2021/10/20 05:30:32;;;;;;;;;17.00;14.00;;;;;18.48;65.38;100774.19;5055682;28;46638;-76
2021/10/20 05:32:58;;;;;;;;;16.00;13.33;;;;;18.50;65.21;100788.41;5049261;28;45437;-75
2021/10/20 05:35:23;;;;;;;;;10.00;10.00;;;;;18.45;65.73;100756.44;5052916;28;45371;-76
2021/10/20 05:37:50;;;;;;;;;11.67;11.33;;;;;18.49;65.39;100762.59;5042675;28;49703;-78
2021/10/20 05:40:16;;;;;;;;;11.00;10.00;;;;;18.48;65.71;100756.38;5029308;28;46906;-77
2021/10/20 05:42:41;;;;;;;;;12.00;11.00;;;;;18.51;65.59;100750.06;5044850;28;45368;-75
2021/10/20 05:45:07;;;;;;;;;13.00;13.00;;;;;18.51;65.52;100736.69;5055477;28;45505;-75
2021/10/20 05:47:33;;;;;;;;;15.00;14.00;;;;;18.52;65.62;100728.63;5052177;28;45459;-74
2021/10/20 05:49:58;;;;;;;;;9.33;9.33;;;;;18.54;65.41;100748.22;5049667;28;56241;-74
2021/10/20 05:52:23;;;;;;;;;12.67;12.67;;;;;18.53;65.73;100738.41;5041968;28;56068;-75
2021/10/20 05:54:49;;;;;;;;;12.67;11.67;;;;;18.56;65.34;100729.44;5040709;28;49053;-74
2021/10/20 05:57:14;;;;;;;;;14.33;12.00;;;;;18.58;65.63;100744.53;5058309;28;54225;-77
2021/10/20 05:59:40;;;;;;;;;12.00;11.33;;;;;18.58;65.25;100751.66;5054531;28;45876;-77
2021/10/20 06:02:06;;;;;;;;;15.33;13.67;;;;;18.61;65.38;100750.75;5055346;28;53957;-78
2021/10/20 06:04:32;;;;;;;;;15.67;13.67;;;;;18.60;65.39;100749.84;5056788;28;45489;-78
2021/10/20 06:06:58;;;;;;;;;13.67;12.33;;;;;18.59;65.54;100740.09;5054035;28;52942;-78
2021/10/20 06:09:23;;;;;;;;;12.33;12.00;;;;;18.56;65.52;100732.13;5058424;28;46558;-78
2021/10/20 06:11:49;;;;;;;;;13.67;12.67;;;;;18.58;65.42;100744.53;5056525;28;45442;-79
2021/10/20 06:14:14;;;;;;;;;15.00;12.33;;;;;18.61;65.59;100738.25;5047965;28;50724;-78
2021/10/20 06:16:41;;;;;;;;;15.33;12.67;;;;;18.62;65.63;100731.97;5047914;28;45505;-78
2021/10/20 06:19:07;;;;;;;;;15.33;12.67;;;;;18.60;65.30;100720.44;5031160;28;46570;-78
2021/10/20 06:21:33;;;;;;;;;15.00;13.00;;;;;18.66;65.43;100701.56;5039716;28;45838;-81
2021/10/20 06:23:59;;;;;;;;;10.33;10.33;;;;;18.65;65.95;100673.06;5042758;28;45501;-79
2021/10/20 06:26:24;;;;;;;;;13.00;13.00;;;;;18.67;65.66;100692.63;5033403;28;45567;-78
2021/10/20 06:28:49;;;;;;;;;13.00;13.00;;;;;18.68;65.86;100689.06;5058449;28;46484;-79
2021/10/20 06:31:15;;;;;;;;;16.67;15.00;;;;;18.69;65.97;100698.84;5040352;28;45411;-79
2021/10/20 06:33:42;;;;;;;;;15.33;12.67;;;;;18.69;67.98;100697.97;5057043;28;46308;-77
2021/10/20 06:36:18;;;;;;;;;15.00;14.33;;;;;18.59;69.19;100690.16;5057290;28;45538;-80
2021/10/20 06:38:43;;;;;;;;;15.00;13.00;;;;;18.54;68.48;100688.50;5053730;28;46185;-81
2021/10/20 06:41:09;;;;;;;;;18.67;14.67;;;;;18.46;68.90;100691.34;5049844;28;45327;-78
2021/10/20 06:43:34;;;;;;;;;17.33;14.67;;;;;18.38;69.19;100676.41;5055275;28;45822;-76
2021/10/20 06:46:02;;;;;;;;;17.33;13.00;;;;;18.33;68.67;100680.06;5055257;28;45577;-79
2021/10/20 06:48:27;;;;;;;;;17.00;14.00;;;;;18.31;71.12;100673.84;5055549;28;46039;-77
2021/10/20 06:50:53;;;;;;;;;16.33;15.67;;;;;18.30;69.64;100665.88;5036878;28;45535;-77
2021/10/20 06:53:18;;;;;;;;;15.00;14.00;;;;;18.29;69.78;100665.00;5056132;28;54870;-77
2021/10/20 06:55:45;;;;;;;;;15.00;15.00;;;;;18.26;70.28;100665.06;5043675;28;45687;-77
2021/10/20 06:58:11;;;;;;;;;15.67;15.00;;;;;18.22;72.08;100657.19;5035005;28;46719;-77
2021/10/20 07:00:36;;;;;;;;;16.00;15.00;;;;;18.20;70.53;100667.88;5037301;28;46673;-79
2021/10/20 07:03:01;;;;;;;;;14.00;14.00;;;;;18.15;71.12;100651.09;5056595;28;52967;-79
2021/10/20 07:05:27;;;;;;;;;22.00;18.00;;;;;18.18;71.11;100648.34;5053394;28;48453;-80
2021/10/20 07:07:52;;;;;;;;;14.33;14.33;;;;;18.19;71.18;100665.25;5057611;28;46097;-81
2021/10/20 07:10:17;;;;;;;;;14.33;14.33;;;;;18.15;71.94;100659.09;5057270;28;55578;-79
2021/10/20 07:13:02;;;;;;;;;14.00;14.00;;;;;18.09;72.31;100661.03;5055253;28;46041;-76
2021/10/20 07:15:27;;;;;;;;;18.33;17.33;;;;;18.08;72.33;100664.63;5035657;28;45547;-76
2021/10/20 07:17:53;;;;;;;;;17.67;17.67;;;;;18.05;71.83;100669.09;5054026;28;45548;-77
2021/10/20 07:20:18;;;;;;;;;16.67;15.00;;;;;18.03;71.25;100660.25;5055885;28;45436;-76
2021/10/20 07:22:43;;;;;;;;;15.67;15.00;;;;;18.01;71.71;100664.78;5050455;28;45579;-75
2021/10/20 07:25:10;;;;;;;;;17.00;15.00;;;;;17.96;71.56;100672.00;5054497;28;51132;-76
2021/10/20 07:27:36;;;;;;;;;17.33;16.00;;;;;17.99;71.87;100665.69;5036872;28;46647;-76
2021/10/20 07:30:03;;;;;;;;;20.33;16.33;;;;;17.96;72.59;100657.78;5055776;28;45351;-76
2021/10/20 07:32:29;;;;;;;;;15.00;15.00;;;;;17.94;72.21;100659.56;5017246;28;45476;-79
2021/10/20 07:34:54;;;;;;;;;17.00;17.00;;;;;17.95;71.99;100666.69;5148988;22;45524;-76
2021/10/20 07:37:19;;;;;;;;;17.33;17.00;;;;;17.96;72.01;100663.13;5051341;28;45575;-78
2021/10/20 07:39:45;;;;;;;;;17.00;15.67;;;;;17.97;72.28;100662.19;5039899;28;56402;-79
2021/10/20 07:42:10;;;;;;;;;21.00;15.67;;;;;17.96;71.47;100655.97;5038886;28;45522;-76
2021/10/20 07:44:36;;;;;;;;;18.00;16.00;;;;;17.95;72.14;100680.03;5024298;28;45557;-77
2021/10/20 07:47:01;;;;;;;;;21.67;15.67;;;;;17.98;72.17;100663.94;5049880;28;46297;-75
2021/10/20 07:49:27;;;;;;;;;20.33;18.00;;;;;18.00;72.67;100668.38;5033634;28;45563;-77
2021/10/20 07:51:56;;;;;;;;;19.00;15.33;;;;;18.01;72.43;100685.28;5030681;28;57051;-77
2021/10/20 07:54:24;;;;;;;;;17.67;14.00;;;;;18.08;72.07;100710.94;5025010;28;45320;-77
2021/10/20 07:56:51;;;;;;;;;15.67;15.67;;;;;18.09;72.57;100720.69;5050636;28;45854;-76
2021/10/20 07:59:16;;;;;;;;;16.67;15.00;;;;;18.05;72.01;100709.19;5031767;28;45594;-76
2021/10/20 08:01:42;;;;;;;;;16.33;15.33;;;;;18.05;72.06;100714.53;5046923;28;45404;-76
2021/10/20 08:04:07;;;;;;;;;15.67;13.33;;;;;18.06;72.41;100715.44;5028105;28;45525;-77
2021/10/20 08:06:33;;;;;;;;;20.33;17.00;;;;;18.09;72.20;100722.50;5044418;28;58439;-75
2021/10/20 08:08:58;;;;;;;;;16.33;14.67;;;;;18.10;73.43;100718.91;5052365;28;54088;-75
2021/10/20 08:11:23;;;;;;;;;14.00;13.33;;;;;18.11;72.18;100705.53;5031234;28;54835;-76
2021/10/20 08:13:49;;;;;;;;;18.33;15.67;;;;;18.13;72.53;100703.69;5051189;28;50532;-75
2021/10/20 08:16:14;;;;;;;;;17.33;17.33;;;;;18.17;72.84;100685.81;5048401;28;49859;-74
2021/10/20 08:18:39;;;;;;;;;17.00;15.33;;;;;18.18;72.44;100707.16;5048627;28;55236;-77
2021/10/20 08:21:05;;;;;;;;;17.00;16.00;;;;;18.19;72.55;100703.56;5046110;28;52706;-77
2021/10/20 08:23:30;;;;;;;;;14.67;12.00;;;;;18.18;72.71;100692.91;5034477;28;45453;-76
2021/10/20 08:25:56;;;;;;;;;16.67;14.67;;;;;18.21;72.38;100693.69;5051091;28;54920;-77
2021/10/20 08:28:21;;;;;;;;;13.67;13.67;;;;;18.28;72.09;100705.16;5033513;28;52797;-77
2021/10/20 08:30:46;;;;;;;;;19.00;16.00;;;;;18.30;71.81;100697.97;5050826;28;45918;-77
2021/10/20 08:33:13;;;;;;;;;12.33;12.33;;;;;18.37;71.58;100698.69;5049843;28;45577;-76
2021/10/20 08:35:38;;;;;;;;;19.00;16.33;;;;;18.35;72.05;100698.75;4991181;28;48315;-77
2021/10/20 08:38:04;;;;;;;;;19.00;19.00;;;;;18.42;71.54;100708.38;5010439;28;45453;-76
2021/10/20 08:40:45;;;;;;;;;19.00;16.00;;;;;18.44;71.60;100705.69;5003629;28;45412;-76
2021/10/20 08:43:10;;;;;;;;;18.33;14.33;;;;;18.50;71.39;100702.84;5004972;28;45471;-76
2021/10/20 08:45:35;;;;;;;;;20.00;16.67;;;;;18.50;71.33;100698.38;5016024;28;46533;-76
2021/10/20 08:48:01;;;;;;;;;16.00;15.67;;;;;18.52;70.97;100709.03;4950023;28;52302;-76
2021/10/20 08:50:28;;;;;;;;;22.00;18.00;;;;;18.52;71.52;100707.25;4945460;28;45515;-76
2021/10/20 08:52:53;;;;;;;;;20.33;18.00;;;;;18.54;71.36;100709.91;4956611;28;45622;-76
2021/10/20 08:55:20;;;;;;;;;16.33;15.00;;;;;18.59;70.97;100726.72;4947629;28;55990;-76
2021/10/20 08:57:46;;;;;;;;;16.67;14.67;;;;;18.60;71.19;100723.13;4950580;28;45498;-76
2021/10/20 09:00:12;;;;;;;;;16.00;14.67;;;;;18.65;70.89;100718.53;4942167;28;45293;-76
2021/10/20 09:02:41;;;;;;;;;17.00;16.00;;;;;18.62;71.21;100718.59;4945386;28;45498;-76
2021/10/20 09:05:11;;;;;;;;;17.00;16.67;;;;;18.69;70.71;100720.22;4941442;28;46447;-76
2021/10/20 09:07:39;;;;;;;;;18.33;16.67;;;;;18.70;71.29;100716.66;4947624;28;45497;-77
2021/10/20 09:10:05;;;;;;;;;16.67;15.67;;;;;18.72;71.07;100708.59;4970084;28;45512;-76
2021/10/20 09:12:36;;;;;;;;;16.33;16.33;;;;;18.72;71.46;100705.91;4949181;28;45630;-77
2021/10/20 09:15:03;;;;;;;;;16.33;16.33;;;;;18.77;71.11;100704.00;4939681;28;47113;-77
2021/10/20 09:17:50;;;;;;;;;19.33;16.67;;;;;18.84;71.13;100711.84;4946256;28;45539;-76
2021/10/20 09:20:17;;;;;;;;;18.33;16.00;;;;;18.90;71.14;100717.94;4950275;28;45500;-77
2021/10/20 09:22:56;;;;;;;;;15.67;14.00;;;;;18.93;70.92;100704.50;4945409;28;45547;-79
2021/10/20 09:25:23;;;;;;;;;18.00;17.00;;;;;18.99;70.66;100710.56;4947689;28;46696;-77
2021/10/20 09:27:50;;;;;;;;;15.67;14.67;;;;;19.01;70.72;100713.19;4949123;28;45431;-76
2021/10/20 09:30:15;;;;;;;;;17.00;17.00;;;;;19.02;70.63;100705.16;4946212;28;45584;-77
2021/10/20 09:32:41;;;;;;;;;18.67;15.67;;;;;19.05;70.69;100698.84;4949728;28;45592;-77
2021/10/20 09:35:10;;;;;;;;;20.00;16.00;;;;;19.08;70.37;100704.13;4981583;28;46408;-77
2021/10/20 09:37:37;;;;;;;;;17.67;15.33;;;;;19.13;70.62;100691.50;5051272;28;45530;-77
2021/10/20 09:40:07;;;;;;;;;18.00;14.33;;;;;19.10;70.66;100686.22;5030052;28;45621;-77
2021/10/20 09:42:44;;;;;;;;;20.00;18.67;;;;;19.15;70.18;100705.69;5050890;28;45391;-78
2021/10/20 09:45:10;;;;;;;;;18.67;17.33;;;;;19.13;70.68;100694.19;5048545;28;46432;-77
2021/10/20 09:47:37;;;;;;;;;15.67;13.67;;;;;19.17;70.66;100709.22;5032688;28;45474;-75
2021/10/20 09:50:02;;;;;;;;;18.33;14.33;;;;;19.14;70.48;100689.69;5031319;28;45668;-77
2021/10/20 09:52:28;;;;;;;;;19.00;18.00;;;;;19.20;70.26;100692.19;5011015;28;45614;-78
2021/10/20 09:54:53;;;;;;;;;14.33;14.33;;;;;19.24;70.02;100688.53;5047573;28;46038;-76
2021/10/20 09:57:19;;;;;;;;;17.33;16.00;;;;;19.29;70.54;100676.78;5015307;28;57295;-76
2021/10/20 09:59:44;;;;;;;;;18.67;16.67;;;;;19.33;69.99;100672.19;5007004;28;55351;-76
2021/10/20 10:02:10;;;;;;;;;16.67;15.00;;;;;19.48;69.89;100673.56;5048760;28;45509;-78
2021/10/20 10:04:39;;;;;;;;;15.67;15.67;;;;;19.60;69.85;100683.97;5030427;28;46250;-75
2021/10/20 10:07:04;;;;;;;;;16.33;14.00;;;;;19.69;69.30;100656.03;5037428;28;45664;-74
2021/10/20 10:09:30;;;;;;;;;13.67;13.33;;;;;19.78;68.88;100664.69;5049604;28;45439;-81
2021/10/20 10:11:57;;;;;;;;;16.67;16.67;;;;;19.84;68.66;100677.03;5029644;28;45594;-76
2021/10/20 10:14:30;;;;;;;;;17.33;15.00;;;;;19.86;68.80;100684.09;5028282;28;46858;-78
2021/10/20 10:16:59;;;;;;;;;15.33;15.33;;;;;19.85;68.74;100660.91;5031963;28;45452;-75
2021/10/20 10:19:27;;;;;;;;;17.67;13.33;;;;;19.88;68.40;100667.97;5018067;28;45456;-75
2021/10/20 10:21:52;;;;;;;;;13.67;12.33;;;;;19.87;68.42;100659.06;5006054;28;45448;-75
2021/10/20 10:24:19;;;;;;;;;12.00;10.67;;;;;19.83;68.08;100653.84;5031064;28;62809;-76
2021/10/20 10:27:06;;;;;;;;;18.33;14.00;;;;;19.86;68.17;100659.97;5048633;28;45399;-77
2021/10/20 10:29:36;;;;;;;;;11.00;10.67;;;;;19.85;68.08;100657.34;5048111;28;45501;-77
2021/10/20 10:32:06;;;;;;;;;16.00;14.67;;;;;19.80;68.11;100643.19;5031970;28;45580;-74
2021/10/20 10:34:35;;;;;;;;;15.67;14.67;;;;;19.83;67.94;100656.53;5053026;28;45857;-73
2021/10/20 10:37:00;;;;;;;;;12.00;12.00;;;;;19.85;68.13;100658.22;5047744;28;45621;-75
2021/10/20 10:39:35;;;;;;;;;11.67;11.00;;;;;19.89;68.45;100659.00;5034699;28;45444;-75
2021/10/20 10:42:01;;;;;;;;;18.00;14.00;;;;;19.92;68.36;100652.66;5051922;28;52112;-74
2021/10/20 10:44:28;;;;;;;;;13.33;13.33;;;;;19.92;68.40;100653.56;5050160;28;46692;-76
2021/10/20 10:47:17;;;;;;;;;11.67;11.00;;;;;20.00;68.33;100650.66;5050010;28;45434;-74
2021/10/20 10:49:45;;;;;;;;;10.00;9.67;;;;;20.05;67.87;100633.50;5051941;28;46164;-74
2021/10/20 10:52:18;;;;;;;;;14.67;12.67;;;;;20.15;67.55;100620.69;5041931;28;45446;-74
2021/10/20 10:55:20;;;;;;;;;15.33;13.00;;;;;20.24;68.11;100631.13;5039086;28;46018;-73
2021/10/20 10:58:02;;;;;;;;;11.67;11.67;;;;;20.29;67.21;100629.13;5046022;28;45238;-74
2021/10/20 11:00:47;;;;;;;;;12.00;10.67;;;;;20.36;67.01;100629.84;5042604;28;45281;-76
2021/10/20 11:03:16;;;;;;;;;17.33;12.00;;;;;20.40;67.18;100628.81;5053226;28;45672;-75
2021/10/20 11:05:57;;;;;;;;;12.67;9.67;;;;;20.49;67.03;100633.91;5049742;28;47031;-74
2021/10/20 11:08:22;;;;;;;;;9.67;9.67;;;;;20.47;67.15;100633.09;5050278;28;45200;-74